createdAt,value
2023-03-28T00:03:27.124Z,20.84
2023-03-28T00:08:30.682Z,20.78
2023-03-28T00:13:35.370Z,20.76
2023-03-28T00:18:39.387Z,20.71
2023-03-28T00:23:42.696Z,20.66
2023-03-28T00:28:47.603Z,20.63
2023-03-28T00:33:50.477Z,20.58
2023-03-28T00:38:54.349Z,20.56
2023-03-28T00:43:58.864Z,20.53
2023-03-28T00:49:06.752Z,20.47
2023-03-28T00:54:13.019Z,20.46
2023-03-28T00:59:21.135Z,20.43
2023-03-28T01:04:28.391Z,20.40
2023-03-28T01:09:32.034Z,20.35
2023-03-28T01:14:39.166Z,20.36
2023-03-28T01:19:59.158Z,20.30
2023-03-28T01:25:39.772Z,20.26
2023-03-28T01:31:08.532Z,20.24
2023-03-28T01:36:59.381Z,20.20
2023-03-28T01:42:15.937Z,20.19
2023-03-28T01:47:29.080Z,20.18
2023-03-28T01:52:37.748Z,20.15
2023-03-28T01:57:46.618Z,20.13
2023-03-28T02:02:56.305Z,20.13
2023-03-28T02:08:09.314Z,20.10
2023-03-28T02:13:22.647Z,20.11
2023-03-28T02:18:41.578Z,20.06
2023-03-28T02:24:06.355Z,20.01
2023-03-28T02:29:19.234Z,19.97
2023-03-28T02:34:34.264Z,19.99
2023-03-28T02:39:48.201Z,19.96
2023-03-28T02:45:11.324Z,19.94
2023-03-28T02:50:25.493Z,19.93
2023-03-28T02:55:38.260Z,19.90
2023-03-28T03:00:49.737Z,19.88
2023-03-28T03:05:52.594Z,19.86
2023-03-28T03:10:57.008Z,19.87
2023-03-28T03:16:00.397Z,19.83
2023-03-28T03:21:03.965Z,19.83
2023-03-28T03:26:08.337Z,19.75
2023-03-28T03:31:19.486Z,19.77
2023-03-28T03:36:52.962Z,19.75
2023-03-28T03:41:57.558Z,19.75
2023-03-28T03:47:00.384Z,19.75
2023-03-28T03:52:04.541Z,19.74
2023-03-28T03:57:08.796Z,19.72
2023-03-28T04:02:12.167Z,19.68
2023-03-28T04:07:19.569Z,19.66
2023-03-28T04:12:25.653Z,19.66
2023-03-28T04:17:34.672Z,19.65
2023-03-28T04:22:46.122Z,19.66
2023-03-28T04:27:54.519Z,19.64
2023-03-28T04:32:59.191Z,19.59
2023-03-28T04:38:03.418Z,19.59
2023-03-28T04:43:07.677Z,19.60
2023-03-28T04:48:14.367Z,19.55
2023-03-28T04:53:17.865Z,19.51
2023-03-28T04:58:44.972Z,19.54
2023-03-28T05:03:47.932Z,19.52
2023-03-28T05:08:50.774Z,19.53
2023-03-28T05:13:55.455Z,19.50
2023-03-28T05:19:10.011Z,19.44
2023-03-28T05:24:36.871Z,19.46
2023-03-28T05:29:49.131Z,19.49
2023-03-28T05:34:53.283Z,19.46
2023-03-28T05:39:56.613Z,19.48
2023-03-28T05:45:01.102Z,19.46
2023-03-28T05:50:14.750Z,19.43
2023-03-28T05:55:17.845Z,19.45
2023-03-28T06:00:23.531Z,19.44
2023-03-28T06:05:28.691Z,19.44
2023-03-28T06:10:32.164Z,19.45
2023-03-28T06:15:53.073Z,19.43
2023-03-28T06:21:04.078Z,19.42
2023-03-28T06:26:07.833Z,19.45
2023-03-28T06:31:19.709Z,19.46
2023-03-28T06:36:23.149Z,19.47
2023-03-28T06:41:27.701Z,19.46
2023-03-28T06:46:32.142Z,19.47
2023-03-28T06:51:35.649Z,19.47
2023-03-28T06:56:38.484Z,19.49
2023-03-28T07:01:42.791Z,19.49
2023-03-28T07:06:47.474Z,19.57
2023-03-28T07:11:50.354Z,19.62
2023-03-28T07:16:55.956Z,19.67
2023-03-28T07:21:59.188Z,19.33
2023-03-28T07:27:14.956Z,17.10
2023-03-28T07:32:22.285Z,16.20
2023-03-28T07:37:25.302Z,15.93
2023-03-28T07:42:49.773Z,17.65
2023-03-28T07:47:53.950Z,18.68
2023-03-28T07:52:58.808Z,19.08
2023-03-28T07:58:03.517Z,19.32
2023-03-28T08:03:15.967Z,19.50
2023-03-28T08:08:20.556Z,19.64
2023-03-28T08:13:34.575Z,19.74
2023-03-28T08:18:44.452Z,19.84
2023-03-28T08:23:47.670Z,19.34
2023-03-28T08:29:11.547Z,19.77
2023-03-28T08:34:16.182Z,19.84
2023-03-28T08:39:20.184Z,19.87
2023-03-28T08:44:48.838Z,19.89
2023-03-28T08:49:58.295Z,19.91
2023-03-28T08:55:06.350Z,19.93
2023-03-28T09:00:17.116Z,19.92
2023-03-28T09:05:26.629Z,19.93
2023-03-28T09:10:41.643Z,19.92
2023-03-28T09:16:03.060Z,19.93
2023-03-28T09:21:16.676Z,19.92
2023-03-28T09:26:25.260Z,19.92
2023-03-28T09:31:38.743Z,20.08
2023-03-28T09:36:49.893Z,20.14
2023-03-28T09:42:04.777Z,20.13
2023-03-28T09:47:34.397Z,20.18
2023-03-28T09:52:44.890Z,20.17
2023-03-28T09:58:02.368Z,20.21
2023-03-28T10:03:08.196Z,20.27
2023-03-28T10:08:24.566Z,20.26
2023-03-28T10:13:47.163Z,20.25
2023-03-28T10:18:50.536Z,20.24
2023-03-28T10:24:15.957Z,20.24
2023-03-28T10:29:24.616Z,20.24
2023-03-28T10:34:29.914Z,20.22
2023-03-28T10:40:26.562Z,20.27
2023-03-28T10:45:51.376Z,20.26
2023-03-28T10:51:10.568Z,20.24
2023-03-28T10:56:27.295Z,18.63
2023-03-28T11:01:36.165Z,18.79
2023-03-28T11:06:52.971Z,19.73
2023-03-28T11:12:27.892Z,19.91
2023-03-28T11:17:46.009Z,20.02
2023-03-28T11:23:06.407Z,20.06
2023-03-28T11:28:33.531Z,20.08
2023-03-28T11:33:55.953Z,20.09
2023-03-28T11:39:05.288Z,20.07
2023-03-28T11:44:17.257Z,20.07
2023-03-28T11:49:28.378Z,20.12
2023-03-28T11:54:38.899Z,20.12
2023-03-28T11:59:50.256Z,20.14
2023-03-28T12:04:59.900Z,20.21
2023-03-28T12:10:10.019Z,20.38
2023-03-28T12:15:19.269Z,20.42
2023-03-28T12:20:36.696Z,20.29
2023-03-28T12:25:51.405Z,20.42
2023-03-28T12:31:06.273Z,20.49
2023-03-28T12:36:18.435Z,20.54
2023-03-28T12:41:26.001Z,20.70
2023-03-28T12:46:38.358Z,20.80
2023-03-28T12:51:45.884Z,20.76
2023-03-28T12:57:03.888Z,20.89
2023-03-28T13:02:17.388Z,20.91
2023-03-28T13:07:55.024Z,20.79
2023-03-28T13:13:13.011Z,20.76
2023-03-28T13:18:34.834Z,20.70
2023-03-28T13:23:47.726Z,20.72
2023-03-28T13:28:51.843Z,21.01
2023-03-28T13:34:01.704Z,21.19
2023-03-28T13:39:19.990Z,21.47
2023-03-28T13:44:28.502Z,21.52
2023-03-28T13:49:42.457Z,20.46
2023-03-28T13:54:46.039Z,21.27
2023-03-28T13:59:53.061Z,21.72
2023-03-28T14:05:06.606Z,21.75
2023-03-28T14:10:30.977Z,21.64
2023-03-28T14:15:37.147Z,21.76
2023-03-28T14:20:42.332Z,21.67
2023-03-28T14:25:45.134Z,21.61
2023-03-28T14:30:48.271Z,21.66
2023-03-28T14:36:01.529Z,21.84
2023-03-28T14:41:13.060Z,22.00
2023-03-28T14:46:16.491Z,21.98
2023-03-28T14:51:22.211Z,21.87
2023-03-28T14:56:28.376Z,21.84
2023-03-28T15:01:34.103Z,21.81
2023-03-28T15:06:39.504Z,21.78
2023-03-28T15:11:44.599Z,21.72
2023-03-28T15:16:48.367Z,21.64
2023-03-28T15:21:56.733Z,21.55
2023-03-28T15:27:04.015Z,21.45
2023-03-28T15:32:13.994Z,21.38
2023-03-28T15:37:21.180Z,21.31
2023-03-28T15:42:36.276Z,21.49
2023-03-28T15:47:39.501Z,21.67
2023-03-28T15:52:44.297Z,21.58
2023-03-28T15:57:48.988Z,21.48
2023-03-28T16:02:52.044Z,21.64
2023-03-28T16:07:56.375Z,22.18
2023-03-28T16:12:59.376Z,22.45
2023-03-28T16:18:22.050Z,22.09
2023-03-28T16:23:32.208Z,22.10
2023-03-28T16:28:35.920Z,22.05
2023-03-28T16:33:38.708Z,22.02
2023-03-28T16:38:42.841Z,22.03
2023-03-28T16:43:45.620Z,22.02
2023-03-28T16:48:48.809Z,22.30
2023-03-28T16:53:53.253Z,22.18
2023-03-28T16:58:56.154Z,22.31
2023-03-28T17:03:59.086Z,22.41
2023-03-28T17:09:04.488Z,22.52
2023-03-28T17:14:07.469Z,22.55
2023-03-28T17:19:10.294Z,22.56
2023-03-28T17:24:14.876Z,22.54
2023-03-28T17:29:17.823Z,22.56
2023-03-28T17:34:20.916Z,22.53
2023-03-28T17:39:25.298Z,22.42
2023-03-28T17:44:28.836Z,22.33
2023-03-28T17:49:31.714Z,22.38
2023-03-28T17:54:35.886Z,22.42
2023-03-28T17:59:38.768Z,22.41
2023-03-28T18:04:42.657Z,22.42
2023-03-28T18:10:00.820Z,22.41
2023-03-28T18:15:04.481Z,22.46
2023-03-28T18:20:08.650Z,22.44
2023-03-28T18:25:12.872Z,22.40
2023-03-28T18:30:15.809Z,22.37
2023-03-28T18:35:18.858Z,22.41
2023-03-28T18:40:24.320Z,22.25
2023-03-28T18:45:27.120Z,22.38
2023-03-28T18:50:30.095Z,22.40
2023-03-28T18:55:34.217Z,22.38
2023-03-28T19:00:38.528Z,22.40
2023-03-28T19:05:41.533Z,22.39
2023-03-28T19:10:47.609Z,22.41
2023-03-28T19:15:59.529Z,22.41
2023-03-28T19:21:02.813Z,22.45
2023-03-28T19:26:09.381Z,22.40
2023-03-28T19:31:14.432Z,22.42
2023-03-28T19:36:17.646Z,22.42
2023-03-28T19:41:24.275Z,22.33
2023-03-28T19:46:33.220Z,22.46
2023-03-28T19:51:38.384Z,22.43
2023-03-28T19:56:42.997Z,22.43
2023-03-28T20:01:45.863Z,22.46
2023-03-28T20:06:49.432Z,22.44
2023-03-28T20:11:53.955Z,22.43
2023-03-28T20:16:56.775Z,22.44
2023-03-28T20:21:59.481Z,22.43
2023-03-28T20:27:04.415Z,22.44
2023-03-28T20:32:09.822Z,22.44
2023-03-28T20:37:14.151Z,22.45
2023-03-28T20:42:19.352Z,22.43
2023-03-28T20:47:25.152Z,22.22
2023-03-28T20:52:27.967Z,22.50
2023-03-28T20:57:35.800Z,22.62
2023-03-28T21:02:38.871Z,22.65
2023-03-28T21:07:43.944Z,22.68
2023-03-28T21:12:49.103Z,22.69
2023-03-28T21:17:53.597Z,22.70
2023-03-28T21:22:56.858Z,22.75
2023-03-28T21:28:01.457Z,22.76
2023-03-28T21:33:04.603Z,22.78
2023-03-28T21:38:07.439Z,22.78
2023-03-28T21:43:11.576Z,22.79
2023-03-28T21:48:14.395Z,22.79
2023-03-28T21:53:17.190Z,22.82
2023-03-28T21:58:21.483Z,22.83
2023-03-28T22:03:24.947Z,22.84
2023-03-28T22:08:27.837Z,22.85
2023-03-28T22:13:31.981Z,22.83
2023-03-28T22:18:34.726Z,22.80
2023-03-28T22:23:37.455Z,22.76
2023-03-28T22:28:41.548Z,22.74
2023-03-28T22:33:44.292Z,22.66
2023-03-28T22:38:47.619Z,22.60
2023-03-28T22:43:51.785Z,22.51
2023-03-28T22:48:58.240Z,22.42
2023-03-28T22:54:03.071Z,22.37
2023-03-28T22:59:07.239Z,22.29
2023-03-28T23:04:09.972Z,22.23
2023-03-28T23:09:13.811Z,22.13
2023-03-28T23:14:17.919Z,22.07
2023-03-28T23:19:22.407Z,22.03
2023-03-28T23:24:26.154Z,21.95
2023-03-28T23:29:30.422Z,21.88
2023-03-28T23:34:34.732Z,21.80
2023-03-28T23:39:39.203Z,21.75
2023-03-28T23:44:43.280Z,21.66
2023-03-28T23:49:45.993Z,21.60
2023-03-28T23:54:48.832Z,21.55
2023-03-28T23:59:53.179Z,21.47
